sensor_id;sensor_type;location;lat;lon;timestamp;P1;durP1;ratioP1;P2;durP2;ratioP2
5418;SDS011;2732;52.092;11.556;2022-09-21T00:04:12;8.20;;;1.50;;
5418;SDS011;2732;52.092;11.556;2022-09-21T00:09:12;4.77;;;1.23;;
5418;SDS011;2732;52.092;11.556;2022-09-21T00:14:13;5.83;;;1.30;;
5418;SDS011;2732;52.092;11.556;2022-09-21T00:19:14;5.50;;;1.27;;
5418;SDS011;2732;52.092;11.556;2022-09-21T00:24:15;2.50;;;0.80;;
5418;SDS011;2732;52.092;11.556;2022-09-21T00:29:16;1.67;;;1.10;;
5418;SDS011;2732;52.092;11.556;2022-09-21T00:34:16;2.67;;;1.30;;
5418;SDS011;2732;52.092;11.556;2022-09-21T00:39:17;2.13;;;1.07;;
5418;SDS011;2732;52.092;11.556;2022-09-21T00:44:30;3.63;;;1.17;;
5418;SDS011;2732;52.092;11.556;2022-09-21T00:49:32;1.93;;;0.90;;
5418;SDS011;2732;52.092;11.556;2022-09-21T00:54:36;8.57;;;1.77;;
5418;SDS011;2732;52.092;11.556;2022-09-21T00:59:43;5.00;;;1.20;;
5418;SDS011;2732;52.092;11.556;2022-09-21T01:04:44;3.43;;;1.30;;
5418;SDS011;2732;52.092;11.556;2022-09-21T01:09:48;2.80;;;1.00;;
5418;SDS011;2732;52.092;11.556;2022-09-21T01:14:53;2.83;;;1.60;;
5418;SDS011;2732;52.092;11.556;2022-09-21T01:25:43;3.30;;;1.10;;
5418;SDS011;2732;52.092;11.556;2022-09-21T01:31:05;4.60;;;1.10;;
5418;SDS011;2732;52.092;11.556;2022-09-21T01:42:31;2.27;;;1.03;;
5418;SDS011;2732;52.092;11.556;2022-09-21T01:47:34;2.73;;;1.90;;
5418;SDS011;2732;52.092;11.556;2022-09-21T01:52:44;4.70;;;1.60;;
5418;SDS011;2732;52.092;11.556;2022-09-21T01:58:01;2.70;;;1.53;;
5418;SDS011;2732;52.092;11.556;2022-09-21T02:03:15;2.53;;;1.73;;
5418;SDS011;2732;52.092;11.556;2022-09-21T02:08:26;2.93;;;1.63;;
5418;SDS011;2732;52.092;11.556;2022-09-21T02:13:32;2.27;;;1.67;;
5418;SDS011;2732;52.092;11.556;2022-09-21T02:18:42;4.40;;;1.80;;
5418;SDS011;2732;52.092;11.556;2022-09-21T02:36:08;2.10;;;1.90;;
5418;SDS011;2732;52.092;11.556;2022-09-21T02:41:41;5.10;;;1.97;;
5418;SDS011;2732;52.092;11.556;2022-09-21T02:47:06;3.37;;;1.83;;
5418;SDS011;2732;52.092;11.556;2022-09-21T02:52:16;4.77;;;2.00;;
5418;SDS011;2732;52.092;11.556;2022-09-21T02:57:19;8.20;;;2.27;;
5418;SDS011;2732;52.092;11.556;2022-09-21T03:02:22;5.03;;;1.87;;
5418;SDS011;2732;52.092;11.556;2022-09-21T03:07:23;3.70;;;2.13;;
5418;SDS011;2732;52.092;11.556;2022-09-21T03:12:23;8.27;;;2.40;;
5418;SDS011;2732;52.092;11.556;2022-09-21T03:17:25;4.03;;;2.57;;
5418;SDS011;2732;52.092;11.556;2022-09-21T03:22:26;4.83;;;2.43;;
5418;SDS011;2732;52.092;11.556;2022-09-21T03:27:27;7.17;;;2.97;;
5418;SDS011;2732;52.092;11.556;2022-09-21T03:32:28;8.93;;;3.10;;
5418;SDS011;2732;52.092;11.556;2022-09-21T03:37:29;4.50;;;2.03;;
5418;SDS011;2732;52.092;11.556;2022-09-21T03:42:30;7.80;;;2.00;;
5418;SDS011;2732;52.092;11.556;2022-09-21T03:47:30;3.67;;;2.37;;
5418;SDS011;2732;52.092;11.556;2022-09-21T03:52:31;5.33;;;2.30;;
5418;SDS011;2732;52.092;11.556;2022-09-21T03:57:32;3.30;;;2.23;;
5418;SDS011;2732;52.092;11.556;2022-09-21T04:02:35;5.60;;;3.07;;
5418;SDS011;2732;52.092;11.556;2022-09-21T04:07:37;7.43;;;2.73;;
5418;SDS011;2732;52.092;11.556;2022-09-21T04:12:39;2.87;;;2.57;;
5418;SDS011;2732;52.092;11.556;2022-09-21T04:17:42;7.30;;;2.77;;
5418;SDS011;2732;52.092;11.556;2022-09-21T04:22:42;4.00;;;3.13;;
5418;SDS011;2732;52.092;11.556;2022-09-21T04:27:43;10.27;;;3.70;;
5418;SDS011;2732;52.092;11.556;2022-09-21T04:32:44;4.40;;;3.83;;
5418;SDS011;2732;52.092;11.556;2022-09-21T04:37:45;7.90;;;4.40;;
5418;SDS011;2732;52.092;11.556;2022-09-21T04:42:49;5.77;;;4.80;;
5418;SDS011;2732;52.092;11.556;2022-09-21T04:47:54;5.23;;;4.03;;
5418;SDS011;2732;52.092;11.556;2022-09-21T04:52:55;10.30;;;4.00;;
5418;SDS011;2732;52.092;11.556;2022-09-21T04:57:57;8.00;;;4.90;;
5418;SDS011;2732;52.092;11.556;2022-09-21T05:02:57;5.50;;;5.00;;
5418;SDS011;2732;52.092;11.556;2022-09-21T05:07:58;8.93;;;4.93;;
5418;SDS011;2732;52.092;11.556;2022-09-21T05:12:59;10.00;;;6.47;;
5418;SDS011;2732;52.092;11.556;2022-09-21T05:17:59;13.90;;;6.50;;
5418;SDS011;2732;52.092;11.556;2022-09-21T05:23:00;17.47;;;6.27;;
5418;SDS011;2732;52.092;11.556;2022-09-21T05:28:01;16.10;;;7.20;;
5418;SDS011;2732;52.092;11.556;2022-09-21T05:33:02;9.80;;;7.10;;
5418;SDS011;2732;52.092;11.556;2022-09-21T05:43:25;8.77;;;6.23;;
5418;SDS011;2732;52.092;11.556;2022-09-21T05:48:27;11.43;;;6.33;;
5418;SDS011;2732;52.092;11.556;2022-09-21T06:04:35;13.93;;;7.90;;
5418;SDS011;2732;52.092;11.556;2022-09-21T06:09:36;15.73;;;7.47;;
5418;SDS011;2732;52.092;11.556;2022-09-21T06:14:36;20.73;;;9.10;;
5418;SDS011;2732;52.092;11.556;2022-09-21T06:19:37;13.43;;;7.67;;
5418;SDS011;2732;52.092;11.556;2022-09-21T06:24:37;15.30;;;8.77;;
5418;SDS011;2732;52.092;11.556;2022-09-21T06:29:38;21.43;;;8.30;;
5418;SDS011;2732;52.092;11.556;2022-09-21T06:34:39;17.17;;;8.67;;
5418;SDS011;2732;52.092;11.556;2022-09-21T06:39:39;13.57;;;8.00;;
5418;SDS011;2732;52.092;11.556;2022-09-21T06:44:40;16.60;;;8.87;;
5418;SDS011;2732;52.092;11.556;2022-09-21T06:49:41;16.03;;;8.63;;
5418;SDS011;2732;52.092;11.556;2022-09-21T06:54:42;15.60;;;9.40;;
5418;SDS011;2732;52.092;11.556;2022-09-21T06:59:43;16.20;;;7.80;;
5418;SDS011;2732;52.092;11.556;2022-09-21T07:04:43;14.57;;;8.07;;
5418;SDS011;2732;52.092;11.556;2022-09-21T07:09:44;15.00;;;7.20;;
5418;SDS011;2732;52.092;11.556;2022-09-21T07:14:45;12.90;;;6.90;;
5418;SDS011;2732;52.092;11.556;2022-09-21T07:19:46;15.53;;;5.47;;
5418;SDS011;2732;52.092;11.556;2022-09-21T07:24:46;14.70;;;4.93;;
5418;SDS011;2732;52.092;11.556;2022-09-21T07:29:47;4.10;;;3.00;;
5418;SDS011;2732;52.092;11.556;2022-09-21T07:34:47;8.17;;;3.50;;
5418;SDS011;2732;52.092;11.556;2022-09-21T07:39:48;7.90;;;3.73;;
5418;SDS011;2732;52.092;11.556;2022-09-21T07:44:49;14.60;;;4.50;;
5418;SDS011;2732;52.092;11.556;2022-09-21T07:49:52;11.07;;;4.90;;
5418;SDS011;2732;52.092;11.556;2022-09-21T07:54:54;8.87;;;4.03;;
5418;SDS011;2732;52.092;11.556;2022-09-21T07:59:55;12.20;;;3.80;;
5418;SDS011;2732;52.092;11.556;2022-09-21T08:04:57;7.23;;;4.13;;
5418;SDS011;2732;52.092;11.556;2022-09-21T08:09:57;6.80;;;3.80;;
5418;SDS011;2732;52.092;11.556;2022-09-21T08:14:58;7.00;;;3.43;;
5418;SDS011;2732;52.092;11.556;2022-09-21T08:19:59;10.37;;;3.90;;
5418;SDS011;2732;52.092;11.556;2022-09-21T08:25:00;18.40;;;3.93;;
5418;SDS011;2732;52.092;11.556;2022-09-21T08:30:01;7.80;;;3.23;;
5418;SDS011;2732;52.092;11.556;2022-09-21T08:35:03;14.50;;;3.70;;
5418;SDS011;2732;52.092;11.556;2022-09-21T08:40:04;3.47;;;2.87;;
5418;SDS011;2732;52.092;11.556;2022-09-21T08:45:08;4.33;;;2.90;;
5418;SDS011;2732;52.092;11.556;2022-09-21T08:55:37;4.83;;;2.70;;
5418;SDS011;2732;52.092;11.556;2022-09-21T09:00:37;2.53;;;2.33;;
5418;SDS011;2732;52.092;11.556;2022-09-21T09:16:45;4.67;;;2.30;;
5418;SDS011;2732;52.092;11.556;2022-09-21T09:22:11;2.83;;;1.77;;
5418;SDS011;2732;52.092;11.556;2022-09-21T09:27:19;13.30;;;2.40;;
5418;SDS011;2732;52.092;11.556;2022-09-21T09:32:30;2.60;;;1.40;;
5418;SDS011;2732;52.092;11.556;2022-09-21T09:37:47;5.50;;;1.80;;
5418;SDS011;2732;52.092;11.556;2022-09-21T09:42:53;5.03;;;1.70;;
5418;SDS011;2732;52.092;11.556;2022-09-21T09:48:14;4.03;;;1.27;;
5418;SDS011;2732;52.092;11.556;2022-09-21T09:53:28;1.73;;;1.20;;
5418;SDS011;2732;52.092;11.556;2022-09-21T10:03:58;0.70;;;0.70;;
5418;SDS011;2732;52.092;11.556;2022-09-21T10:14:31;0.90;;;0.80;;
5418;SDS011;2732;52.092;11.556;2022-09-21T10:19:34;1.23;;;0.80;;
5418;SDS011;2732;52.092;11.556;2022-09-21T10:24:36;2.07;;;0.60;;
5418;SDS011;2732;52.092;11.556;2022-09-21T10:29:43;1.50;;;0.60;;
5418;SDS011;2732;52.092;11.556;2022-09-21T10:50:24;3.60;;;1.00;;
5418;SDS011;2732;52.092;11.556;2022-09-21T10:55:37;0.50;;;0.47;;
5418;SDS011;2732;52.092;11.556;2022-09-21T11:00:43;0.80;;;0.40;;
5418;SDS011;2732;52.092;11.556;2022-09-21T11:05:50;2.70;;;0.50;;
5418;SDS011;2732;52.092;11.556;2022-09-21T11:11:09;2.20;;;0.60;;
5418;SDS011;2732;52.092;11.556;2022-09-21T11:16:21;0.77;;;0.70;;
5418;SDS011;2732;52.092;11.556;2022-09-21T11:26:53;0.50;;;0.43;;
5418;SDS011;2732;52.092;11.556;2022-09-21T11:32:17;0.73;;;0.60;;
5418;SDS011;2732;52.092;11.556;2022-09-21T11:37:39;2.20;;;0.50;;
5418;SDS011;2732;52.092;11.556;2022-09-21T11:43:11;1.20;;;0.30;;
5418;SDS011;2732;52.092;11.556;2022-09-21T11:48:22;0.53;;;0.40;;
5418;SDS011;2732;52.092;11.556;2022-09-21T12:00:07;1.27;;;0.30;;
5418;SDS011;2732;52.092;11.556;2022-09-21T12:11:18;0.50;;;0.50;;
5418;SDS011;2732;52.092;11.556;2022-09-21T12:17:23;0.57;;;0.57;;
5418;SDS011;2732;52.092;11.556;2022-09-21T12:22:30;0.57;;;0.50;;
5418;SDS011;2732;52.092;11.556;2022-09-21T12:32:51;0.40;;;0.40;;
5418;SDS011;2732;52.092;11.556;2022-09-21T12:48:59;0.73;;;0.73;;
5418;SDS011;2732;52.092;11.556;2022-09-21T12:54:16;0.53;;;0.50;;
5418;SDS011;2732;52.092;11.556;2022-09-21T12:59:30;1.70;;;0.50;;
5418;SDS011;2732;52.092;11.556;2022-09-21T13:04:54;0.60;;;0.50;;
5418;SDS011;2732;52.092;11.556;2022-09-21T13:10:36;1.07;;;0.60;;
5418;SDS011;2732;52.092;11.556;2022-09-21T13:15:42;0.60;;;0.50;;
5418;SDS011;2732;52.092;11.556;2022-09-21T13:20:48;0.53;;;0.43;;
5418;SDS011;2732;52.092;11.556;2022-09-21T13:25:59;0.90;;;0.47;;
5418;SDS011;2732;52.092;11.556;2022-09-21T13:31:52;0.70;;;0.60;;
5418;SDS011;2732;52.092;11.556;2022-09-21T13:47:35;0.90;;;0.90;;
5418;SDS011;2732;52.092;11.556;2022-09-21T13:52:43;1.23;;;0.30;;
5418;SDS011;2732;52.092;11.556;2022-09-21T13:57:51;1.23;;;0.50;;
5418;SDS011;2732;52.092;11.556;2022-09-21T14:02:57;0.90;;;0.77;;
5418;SDS011;2732;52.092;11.556;2022-09-21T14:13:23;1.10;;;0.50;;
5418;SDS011;2732;52.092;11.556;2022-09-21T14:18:37;0.80;;;0.60;;
5418;SDS011;2732;52.092;11.556;2022-09-21T14:23:37;0.80;;;0.50;;
5418;SDS011;2732;52.092;11.556;2022-09-21T14:28:45;0.63;;;0.40;;
5418;SDS011;2732;52.092;11.556;2022-09-21T14:33:52;1.30;;;0.53;;
5418;SDS011;2732;52.092;11.556;2022-09-21T14:38:57;0.40;;;0.30;;
5418;SDS011;2732;52.092;11.556;2022-09-21T14:44:01;0.43;;;0.43;;
5418;SDS011;2732;52.092;11.556;2022-09-21T15:00:16;0.83;;;0.50;;
5418;SDS011;2732;52.092;11.556;2022-09-21T15:05:37;1.00;;;1.00;;
5418;SDS011;2732;52.092;11.556;2022-09-21T15:21:38;0.77;;;0.60;;
5418;SDS011;2732;52.092;11.556;2022-09-21T15:26:42;1.77;;;0.50;;
5418;SDS011;2732;52.092;11.556;2022-09-21T15:31:43;5.10;;;0.83;;
5418;SDS011;2732;52.092;11.556;2022-09-21T15:36:44;1.53;;;0.40;;
5418;SDS011;2732;52.092;11.556;2022-09-21T15:41:48;0.50;;;0.40;;
5418;SDS011;2732;52.092;11.556;2022-09-21T15:46:55;1.47;;;0.60;;
5418;SDS011;2732;52.092;11.556;2022-09-21T15:52:00;1.57;;;0.70;;
5418;SDS011;2732;52.092;11.556;2022-09-21T15:57:23;1.53;;;0.50;;
5418;SDS011;2732;52.092;11.556;2022-09-21T16:02:36;0.97;;;0.53;;
5418;SDS011;2732;52.092;11.556;2022-09-21T16:07:39;1.07;;;0.87;;
5418;SDS011;2732;52.092;11.556;2022-09-21T16:12:40;2.50;;;0.83;;
5418;SDS011;2732;52.092;11.556;2022-09-21T16:17:52;0.80;;;0.80;;
5418;SDS011;2732;52.092;11.556;2022-09-21T16:23:05;0.90;;;0.90;;
5418;SDS011;2732;52.092;11.556;2022-09-21T16:28:26;1.13;;;0.80;;
5418;SDS011;2732;52.092;11.556;2022-09-21T16:33:33;4.80;;;1.20;;
5418;SDS011;2732;52.092;11.556;2022-09-21T16:38:41;1.10;;;1.10;;
5418;SDS011;2732;52.092;11.556;2022-09-21T16:43:43;1.90;;;0.90;;
5418;SDS011;2732;52.092;11.556;2022-09-21T16:48:44;1.10;;;0.60;;
5418;SDS011;2732;52.092;11.556;2022-09-21T16:53:45;1.90;;;0.97;;
5418;SDS011;2732;52.092;11.556;2022-09-21T16:58:45;2.30;;;0.47;;
5418;SDS011;2732;52.092;11.556;2022-09-21T17:03:46;1.43;;;0.63;;
5418;SDS011;2732;52.092;11.556;2022-09-21T17:08:48;0.80;;;0.80;;
5418;SDS011;2732;52.092;11.556;2022-09-21T17:13:49;1.13;;;0.80;;
5418;SDS011;2732;52.092;11.556;2022-09-21T17:18:49;0.70;;;0.70;;
5418;SDS011;2732;52.092;11.556;2022-09-21T17:23:50;2.50;;;0.80;;
5418;SDS011;2732;52.092;11.556;2022-09-21T17:28:52;0.60;;;0.60;;
5418;SDS011;2732;52.092;11.556;2022-09-21T17:33:53;2.80;;;0.80;;
5418;SDS011;2732;52.092;11.556;2022-09-21T17:38:54;3.23;;;1.57;;
5418;SDS011;2732;52.092;11.556;2022-09-21T17:44:01;2.10;;;1.27;;
5418;SDS011;2732;52.092;11.556;2022-09-21T17:49:25;2.50;;;2.00;;
5418;SDS011;2732;52.092;11.556;2022-09-21T17:54:25;1.10;;;1.10;;
5418;SDS011;2732;52.092;11.556;2022-09-21T17:59:30;2.60;;;2.40;;
5418;SDS011;2732;52.092;11.556;2022-09-21T18:04:33;3.10;;;1.47;;
5418;SDS011;2732;52.092;11.556;2022-09-21T18:09:34;5.13;;;1.20;;
5418;SDS011;2732;52.092;11.556;2022-09-21T18:25:42;3.73;;;1.37;;
5418;SDS011;2732;52.092;11.556;2022-09-21T18:30:54;2.63;;;1.13;;
5418;SDS011;2732;52.092;11.556;2022-09-21T18:36:20;1.33;;;0.90;;
5418;SDS011;2732;52.092;11.556;2022-09-21T18:46:44;1.60;;;1.33;;
5418;SDS011;2732;52.092;11.556;2022-09-21T18:52:13;4.40;;;1.37;;
5418;SDS011;2732;52.092;11.556;2022-09-21T18:57:38;5.50;;;1.20;;
5418;SDS011;2732;52.092;11.556;2022-09-21T19:02:39;4.10;;;1.30;;
5418;SDS011;2732;52.092;11.556;2022-09-21T19:07:41;7.80;;;1.93;;
5418;SDS011;2732;52.092;11.556;2022-09-21T19:34:53;6.17;;;2.97;;
5418;SDS011;2732;52.092;11.556;2022-09-21T19:39:57;2.10;;;1.83;;
5418;SDS011;2732;52.092;11.556;2022-09-21T19:45:13;2.10;;;2.00;;
5418;SDS011;2732;52.092;11.556;2022-09-21T19:50:53;3.47;;;2.07;;
5418;SDS011;2732;52.092;11.556;2022-09-21T19:55:58;4.47;;;1.93;;
5418;SDS011;2732;52.092;11.556;2022-09-21T20:01:19;8.60;;;2.23;;
5418;SDS011;2732;52.092;11.556;2022-09-21T20:06:25;11.07;;;2.40;;
5418;SDS011;2732;52.092;11.556;2022-09-21T20:11:40;2.77;;;2.13;;
5418;SDS011;2732;52.092;11.556;2022-09-21T20:16:59;2.83;;;2.40;;
5418;SDS011;2732;52.092;11.556;2022-09-21T20:22:11;5.40;;;2.20;;
5418;SDS011;2732;52.092;11.556;2022-09-21T20:32:34;9.60;;;3.00;;
5418;SDS011;2732;52.092;11.556;2022-09-21T20:37:36;5.03;;;2.87;;
5418;SDS011;2732;52.092;11.556;2022-09-21T20:42:38;7.53;;;2.07;;
5418;SDS011;2732;52.092;11.556;2022-09-21T20:47:39;8.00;;;2.27;;
5418;SDS011;2732;52.092;11.556;2022-09-21T20:52:40;4.93;;;2.20;;
5418;SDS011;2732;52.092;11.556;2022-09-21T20:57:42;2.70;;;2.50;;
5418;SDS011;2732;52.092;11.556;2022-09-21T21:02:43;3.73;;;1.80;;
5418;SDS011;2732;52.092;11.556;2022-09-21T21:07:44;2.90;;;1.90;;
5418;SDS011;2732;52.092;11.556;2022-09-21T21:12:44;3.73;;;1.47;;
5418;SDS011;2732;52.092;11.556;2022-09-21T21:17:45;6.63;;;1.80;;
5418;SDS011;2732;52.092;11.556;2022-09-21T21:22:47;4.00;;;1.40;;
5418;SDS011;2732;52.092;11.556;2022-09-21T21:27:50;5.03;;;1.60;;
5418;SDS011;2732;52.092;11.556;2022-09-21T21:32:50;3.80;;;1.00;;
5418;SDS011;2732;52.092;11.556;2022-09-21T21:37:52;2.20;;;1.07;;
5418;SDS011;2732;52.092;11.556;2022-09-21T21:42:53;3.43;;;1.27;;
5418;SDS011;2732;52.092;11.556;2022-09-21T21:47:55;3.00;;;1.10;;
5418;SDS011;2732;52.092;11.556;2022-09-21T21:52:56;1.53;;;1.33;;
5418;SDS011;2732;52.092;11.556;2022-09-21T21:57:57;2.10;;;1.67;;
5418;SDS011;2732;52.092;11.556;2022-09-21T22:02:58;1.20;;;1.10;;
5418;SDS011;2732;52.092;11.556;2022-09-21T22:07:58;2.20;;;1.43;;
5418;SDS011;2732;52.092;11.556;2022-09-21T22:12:59;5.23;;;1.50;;
5418;SDS011;2732;52.092;11.556;2022-09-21T22:17:59;1.97;;;1.23;;
5418;SDS011;2732;52.092;11.556;2022-09-21T22:23:00;2.20;;;1.20;;
5418;SDS011;2732;52.092;11.556;2022-09-21T22:28:01;2.20;;;1.60;;
5418;SDS011;2732;52.092;11.556;2022-09-21T22:33:01;1.50;;;1.40;;
5418;SDS011;2732;52.092;11.556;2022-09-21T22:38:02;6.40;;;1.60;;
5418;SDS011;2732;52.092;11.556;2022-09-21T22:43:02;6.30;;;1.60;;
5418;SDS011;2732;52.092;11.556;2022-09-21T22:48:03;6.80;;;1.73;;
5418;SDS011;2732;52.092;11.556;2022-09-21T22:53:03;7.03;;;2.30;;
5418;SDS011;2732;52.092;11.556;2022-09-21T22:58:04;2.30;;;2.10;;
5418;SDS011;2732;52.092;11.556;2022-09-21T23:03:05;3.47;;;1.70;;
5418;SDS011;2732;52.092;11.556;2022-09-21T23:08:05;1.70;;;1.60;;
5418;SDS011;2732;52.092;11.556;2022-09-21T23:13:06;1.60;;;1.60;;
5418;SDS011;2732;52.092;11.556;2022-09-21T23:18:07;3.53;;;1.80;;
5418;SDS011;2732;52.092;11.556;2022-09-21T23:23:08;2.97;;;1.60;;
5418;SDS011;2732;52.092;11.556;2022-09-21T23:28:09;2.43;;;1.57;;
5418;SDS011;2732;52.092;11.556;2022-09-21T23:33:10;2.40;;;1.90;;
5418;SDS011;2732;52.092;11.556;2022-09-21T23:38:10;1.97;;;1.80;;
5418;SDS011;2732;52.092;11.556;2022-09-21T23:43:11;1.83;;;1.70;;
5418;SDS011;2732;52.092;11.556;2022-09-21T23:48:11;1.57;;;1.47;;
5418;SDS011;2732;52.092;11.556;2022-09-21T23:53:12;1.60;;;1.60;;
5418;SDS011;2732;52.092;11.556;2022-09-21T23:58:12;1.50;;;1.30;;
